Time;durP1;ratioP1;P1;durP2;ratioP2;P2;SDS_P1;SDS_P2;PMS_P1;PMS_P2;Temp;Humidity;BMP_temperature;BMP_pressure;BME280_temperature;BME280_humidity;BME280_pressure;Samples;Min_cycle;Max_cycle;Signal;HPM_P1;HPM_P2
2022/03/04 00:00:45;;;;;;;0.00;0.00;;;;;;;8.48;82.57;100410.38;6185845;23;20020;-73
2022/03/04 00:03:11;;;;;;;0.00;0.00;;;;;;;8.53;82.76;100414.00;6189170;23;20060;-72
2022/03/04 00:05:40;;;;;;;0.00;0.00;;;;;;;8.53;82.95;100416.72;6164539;23;20387;-74
2022/03/04 00:08:05;;;;;;;0.00;0.00;;;;;;;8.52;82.40;100412.34;6216032;23;20007;-72
2022/03/04 00:10:39;;;;;;;0.00;0.00;;;;;;;8.54;82.73;100410.22;6217747;23;20000;-75
2022/03/04 00:13:05;;;;;;;0.00;0.00;;;;;;;8.62;82.42;100424.47;6190943;23;20001;-75
2022/03/04 00:15:31;;;;;;;0.00;0.00;;;;;;;8.66;82.74;100420.13;6216266;23;20005;-74
2022/03/04 00:17:56;;;;;;;0.00;0.00;;;;;;;8.72;82.74;100419.16;6213879;23;20007;-73
2022/03/04 00:20:22;;;;;;;0.00;0.00;;;;;;;8.77;81.78;100416.47;6219974;23;20012;-75
2022/03/04 00:22:48;;;;;;;0.00;0.00;;;;;;;8.88;82.10;100425.63;6194610;23;20004;-76
2022/03/04 00:25:14;;;;;;;0.00;0.00;;;;;;;8.97;82.04;100420.53;6192861;23;20008;-74
2022/03/04 00:27:40;;;;;;;0.00;0.00;;;;;;;9.03;81.97;100424.97;6219533;23;20004;-73
2022/03/04 00:30:07;;;;;;;0.00;0.00;;;;;;;9.06;81.80;100424.44;6216292;23;20082;-73
2022/03/04 00:32:34;;;;;;;0.00;0.00;;;;;;;9.10;81.89;100425.59;6188566;23;20015;-71
2022/03/04 00:34:59;;;;;;;0.00;0.00;;;;;;;9.14;82.13;100432.19;6186518;23;20342;-73
2022/03/04 00:37:25;;;;;;;0.00;0.00;;;;;;;9.18;82.15;100438.75;6186808;23;20009;-73
2022/03/04 00:39:50;;;;;;;0.00;0.00;;;;;;;9.19;81.73;100440.41;6162219;23;20323;-70
2022/03/04 00:42:16;;;;;;;0.00;0.00;;;;;;;9.19;82.21;100442.31;6210224;23;20016;-71
2022/03/04 00:44:42;;;;;;;0.00;0.00;;;;;;;9.17;81.99;100448.03;6212773;23;20084;-71
2022/03/04 00:47:07;;;;;;;3.00;2.90;;;;;;;9.05;81.81;100440.00;6212629;23;20505;-71
2022/03/04 00:49:34;;;;;;;0.00;0.00;;;;;;;8.85;81.83;100451.47;6213321;23;20008;-70
2022/03/04 00:51:59;;;;;;;0.00;0.00;;;;;;;8.64;81.48;100464.00;6187074;23;20016;-70
2022/03/04 00:54:25;;;;;;;0.00;0.00;;;;;;;8.43;80.81;100471.06;6185832;23;20017;-71
2022/03/04 00:56:50;;;;;;;0.00;0.00;;;;;;;8.21;81.59;100479.19;6186283;23;20012;-70
2022/03/04 00:59:16;;;;;;;0.00;0.00;;;;;;;8.03;81.31;100472.91;6185699;23;20004;-71
2022/03/04 01:01:41;;;;;;;0.00;0.00;;;;;;;7.88;81.95;100469.13;6183384;23;20019;-71
2022/03/04 01:04:07;;;;;;;0.00;0.00;;;;;;;7.75;82.25;100473.78;6162849;23;20020;-70
2022/03/04 01:06:33;;;;;;;0.00;0.00;;;;;;;7.61;81.93;100475.22;6215631;23;20022;-75
2022/03/04 01:08:58;;;;;;;0.00;0.00;;;;;;;7.55;82.94;100481.59;6189219;23;20013;-74
2022/03/04 01:11:23;;;;;;;0.00;0.00;;;;;;;7.50;82.86;100483.19;6216330;23;20024;-73
2022/03/04 01:13:49;;;;;;;0.00;0.00;;;;;;;7.47;82.42;100488.28;6186844;23;20012;-73
2022/03/04 01:16:14;;;;;;;0.00;0.00;;;;;;;7.43;82.60;100484.38;6215513;23;20005;-74
2022/03/04 01:18:40;;;;;;;0.00;0.00;;;;;;;7.38;82.51;100476.97;6215627;23;20063;-75
2022/03/04 01:21:05;;;;;;;0.00;0.00;;;;;;;7.28;82.91;100480.31;6216272;23;20039;-75
2022/03/04 01:23:31;;;;;;;0.00;0.00;;;;;;;7.26;83.11;100478.91;6190652;23;20011;-72
2022/03/04 01:25:56;;;;;;;0.00;0.00;;;;;;;7.27;82.66;100483.25;6141803;23;20005;-72
2022/03/04 01:28:22;;;;;;;0.20;0.20;;;;;;;7.18;82.76;100471.13;6216869;23;20008;-74
2022/03/04 01:30:48;;;;;;;0.00;0.00;;;;;;;7.16;83.31;100477.63;6216518;23;20379;-73
2022/03/04 01:33:14;;;;;;;0.00;0.00;;;;;;;7.19;83.29;100478.22;6215380;23;20001;-74
2022/03/04 01:35:41;;;;;;;0.00;0.00;;;;;;;7.22;82.96;100477.75;6165984;23;20087;-75
2022/03/04 01:38:07;;;;;;;0.00;0.00;;;;;;;7.22;83.19;100483.19;6187130;23;20028;-74
2022/03/04 01:40:32;;;;;;;0.00;0.00;;;;;;;7.15;83.88;100484.16;6217294;23;20139;-74
2022/03/04 01:42:58;;;;;;;0.00;0.00;;;;;;;7.08;82.93;100480.75;6212864;23;20016;-75
2022/03/04 01:45:30;;;;;;;0.00;0.00;;;;;;;7.06;82.87;100490.22;6211029;23;20009;-74
2022/03/04 01:47:56;;;;;;;0.00;0.00;;;;;;;7.01;82.92;100493.66;6212416;23;20420;-75
2022/03/04 01:50:27;;;;;;;0.00;0.00;;;;;;;6.97;83.56;100487.03;6212348;23;20032;-72
2022/03/04 01:53:02;;;;;;;0.00;0.00;;;;;;;6.90;83.28;100475.47;6215457;23;20004;-73
2022/03/04 01:55:27;;;;;;;0.00;0.00;;;;;;;6.96;83.73;100496.25;6213528;23;20219;-74
2022/03/04 01:58:06;;;;;;;0.00;0.00;;;;;;;6.97;83.42;100492.47;6212568;23;20490;-75
2022/03/04 02:00:34;;;;;;;0.00;0.00;;;;;;;6.98;83.42;100491.44;6215174;23;20408;-75
2022/03/04 02:03:00;;;;;;;0.00;0.00;;;;;;;6.99;83.75;100490.34;6185634;23;20032;-77
2022/03/04 02:05:26;;;;;;;0.00;0.00;;;;;;;6.95;83.48;100490.00;6213726;23;20009;-74
2022/03/04 02:07:52;;;;;;;0.00;0.00;;;;;;;6.95;83.44;100494.59;6210562;23;20028;-74
2022/03/04 02:10:18;;;;;;;0.00;0.00;;;;;;;6.93;83.06;100494.84;6187223;23;20016;-75
2022/03/04 02:12:43;;;;;;;0.00;0.00;;;;;;;6.94;83.52;100501.13;6215114;23;20007;-75
2022/03/04 02:15:10;;;;;;;0.00;0.00;;;;;;;6.93;83.83;100485.88;6212847;23;20017;-75
2022/03/04 02:17:36;;;;;;;0.00;0.00;;;;;;;6.87;83.29;100492.28;6188537;23;20012;-76
2022/03/04 02:20:03;;;;;;;0.00;0.00;;;;;;;6.85;83.11;100495.22;6186482;23;20103;-73
2022/03/04 02:22:30;;;;;;;0.00;0.00;;;;;;;6.84;83.08;100504.44;6216058;23;20008;-76
2022/03/04 02:24:56;;;;;;;0.00;0.00;;;;;;;6.87;83.68;100503.16;6184214;23;20017;-75
2022/03/04 02:27:21;;;;;;;0.00;0.00;;;;;;;6.84;82.91;100498.19;6188895;23;20009;-75
2022/03/04 02:29:47;;;;;;;0.00;0.00;;;;;;;6.84;83.43;100503.63;6161856;23;20038;-76
2022/03/04 02:32:13;;;;;;;0.00;0.00;;;;;;;6.82;83.60;100507.41;6188443;23;20079;-74
2022/03/04 02:34:38;;;;;;;0.00;0.00;;;;;;;6.84;83.31;100500.91;6186640;23;20014;-75
2022/03/04 02:37:04;;;;;;;0.00;0.00;;;;;;;6.79;83.00;100507.88;6164380;23;20091;-75
2022/03/04 02:39:30;;;;;;;0.00;0.00;;;;;;;6.74;83.34;100518.63;6213486;23;20017;-77
2022/03/04 02:41:55;;;;;;;0.00;0.00;;;;;;;6.70;83.58;100508.47;6186633;23;20431;-75
2022/03/04 02:44:21;;;;;;;0.00;0.00;;;;;;;6.68;83.24;100505.19;6187060;23;20017;-76
2022/03/04 02:46:46;;;;;;;0.00;0.00;;;;;;;6.66;83.79;100516.28;6214433;23;20004;-74
2022/03/04 02:49:12;;;;;;;0.00;0.00;;;;;;;6.63;83.41;100517.59;6186921;23;20004;-75
2022/03/04 02:51:37;;;;;;;0.00;0.00;;;;;;;6.61;83.89;100516.16;6211475;23;20014;-75
2022/03/04 02:54:04;;;;;;;0.00;0.00;;;;;;;6.56;84.32;100524.22;6211239;23;20015;-73
2022/03/04 02:56:29;;;;;;;0.00;0.00;;;;;;;6.53;83.86;100513.81;6212775;23;20063;-74
2022/03/04 02:58:55;;;;;;;0.10;0.10;;;;;;;6.55;84.19;100526.09;6162170;23;20008;-73
2022/03/04 03:01:20;;;;;;;0.00;0.00;;;;;;;6.60;83.72;100530.81;6185765;23;20047;-73
2022/03/04 03:03:46;;;;;;;0.00;0.00;;;;;;;6.61;83.51;100522.44;6209677;23;20005;-74
2022/03/04 03:06:12;;;;;;;0.00;0.00;;;;;;;6.65;83.97;100533.66;6213302;23;20746;-74
2022/03/04 03:08:39;;;;;;;0.00;0.00;;;;;;;6.67;84.13;100536.13;6211739;23;20008;-73
2022/03/04 03:11:04;;;;;;;0.00;0.00;;;;;;;6.64;83.93;100529.28;6188295;23;20109;-75
2022/03/04 03:13:31;;;;;;;0.00;0.00;;;;;;;6.72;83.32;100528.91;6189988;23;20439;-73
2022/03/04 03:15:56;;;;;;;0.00;0.00;;;;;;;6.76;83.01;100535.53;6212956;23;20062;-74
2022/03/04 03:18:22;;;;;;;0.00;0.00;;;;;;;6.75;82.85;100533.88;6188337;23;20434;-75
2022/03/04 03:20:47;;;;;;;0.00;0.00;;;;;;;6.74;83.77;100534.13;6188589;23;20478;-74
2022/03/04 03:23:13;;;;;;;0.00;0.00;;;;;;;6.73;83.59;100536.03;6214622;23;20062;-74
2022/03/04 03:25:39;;;;;;;0.00;0.00;;;;;;;6.68;83.34;100522.31;6188496;23;20100;-73
2022/03/04 03:28:04;;;;;;;0.00;0.00;;;;;;;6.64;83.96;100532.00;6226265;23;20056;-74
2022/03/04 03:30:30;;;;;;;0.00;0.00;;;;;;;6.62;82.99;100529.50;6205533;23;20099;-73
2022/03/04 03:32:56;;;;;;;0.00;0.00;;;;;;;6.59;82.98;100534.59;6192855;23;20012;-75
2022/03/04 03:35:22;;;;;;;0.00;0.00;;;;;;;6.56;83.13;100540.50;6187663;23;20004;-74
2022/03/04 03:37:50;;;;;;;0.00;0.00;;;;;;;6.55;83.69;100541.56;6217399;23;20108;-74
2022/03/04 03:40:16;;;;;;;0.00;0.00;;;;;;;6.55;83.40;100544.28;6219659;23;20051;-74
2022/03/04 03:42:42;;;;;;;0.00;0.00;;;;;;;6.50;83.08;100538.72;6166073;23;20004;-74
2022/03/04 03:45:10;;;;;;;0.00;0.00;;;;;;;6.47;83.74;100542.75;6220070;23;20430;-73
2022/03/04 03:47:37;;;;;;;0.00;0.00;;;;;;;6.41;83.42;100544.53;6191505;23;20005;-74
2022/03/04 03:50:03;;;;;;;0.00;0.00;;;;;;;6.42;84.12;100539.91;6191960;23;20012;-73
2022/03/04 03:52:29;;;;;;;0.00;0.00;;;;;;;6.40;84.21;100547.47;6223740;23;20085;-75
2022/03/04 03:54:54;;;;;;;0.00;0.00;;;;;;;6.40;83.99;100553.72;6162198;23;20048;-71
2022/03/04 03:57:20;;;;;;;0.00;0.00;;;;;;;6.40;84.49;100553.72;6186785;23;20016;-72
2022/03/04 03:59:45;;;;;;;0.00;0.00;;;;;;;6.42;83.49;100556.22;6216057;23;20008;-71
2022/03/04 04:02:11;;;;;;;0.00;0.00;;;;;;;6.38;83.31;100550.44;6218086;23;20135;-73
2022/03/04 04:04:36;;;;;;;0.00;0.00;;;;;;;6.36;84.19;100551.72;6167393;23;20008;-74
2022/03/04 04:07:05;;;;;;;0.00;0.00;;;;;;;6.36;83.60;100546.28;6191054;23;20104;-71
2022/03/04 04:09:31;;;;;;;0.00;0.00;;;;;;;6.28;84.22;100561.06;6216361;23;20035;-70
2022/03/04 04:11:58;;;;;;;0.00;0.00;;;;;;;6.24;83.68;100557.16;6191057;23;20001;-71
2022/03/04 04:14:24;;;;;;;0.00;0.00;;;;;;;6.25;83.98;100556.06;6217875;23;20304;-71
2022/03/04 04:16:50;;;;;;;0.00;0.00;;;;;;;6.27;84.43;100567.53;6214233;23;20012;-71
2022/03/04 04:19:15;;;;;;;0.00;0.00;;;;;;;6.28;83.88;100566.47;6217017;23;20013;-70
2022/03/04 04:21:41;;;;;;;0.00;0.00;;;;;;;6.28;84.70;100567.31;6188819;23;20021;-73
2022/03/04 04:24:06;;;;;;;0.00;0.00;;;;;;;6.31;84.34;100576.88;6189645;23;20016;-74
2022/03/04 04:26:32;;;;;;;0.00;0.00;;;;;;;6.34;83.99;100581.84;6215541;23;20001;-73
2022/03/04 04:28:58;;;;;;;0.00;0.00;;;;;;;6.39;84.65;100583.84;6211798;23;20028;-74
2022/03/04 04:31:24;;;;;;;0.00;0.00;;;;;;;6.45;84.28;100583.75;6190079;23;20001;-72
2022/03/04 04:33:50;;;;;;;0.00;0.00;;;;;;;6.46;83.67;100584.56;6186748;23;20008;-74
2022/03/04 04:36:16;;;;;;;0.00;0.00;;;;;;;6.49;84.20;100580.56;6162800;23;20434;-74
2022/03/04 04:38:41;;;;;;;0.00;0.00;;;;;;;6.53;83.47;100596.16;6216560;23;20012;-73
2022/03/04 04:41:07;;;;;;;0.00;0.00;;;;;;;6.55;83.42;100583.16;6216327;23;20758;-73
2022/03/04 04:43:34;;;;;;;0.00;0.00;;;;;;;6.58;83.82;100593.53;6188318;23;20009;-76
2022/03/04 04:45:59;;;;;;;0.00;0.00;;;;;;;6.61;84.02;100586.81;6217549;23;20008;-74
2022/03/04 04:48:25;;;;;;;0.00;0.00;;;;;;;6.62;83.68;100593.91;6220588;23;20007;-72
2022/03/04 04:50:51;;;;;;;0.00;0.00;;;;;;;6.55;83.16;100587.75;6186488;23;20478;-69
2022/03/04 04:53:16;;;;;;;0.00;0.00;;;;;;;6.50;83.38;100584.91;6186124;23;20024;-71
2022/03/04 04:55:42;;;;;;;0.00;0.00;;;;;;;6.40;82.64;100591.75;6188181;23;20423;-71
2022/03/04 04:58:08;;;;;;;0.00;0.00;;;;;;;6.40;83.30;100591.75;6187461;23;20087;-70
2022/03/04 05:00:33;;;;;;;0.00;0.00;;;;;;;6.39;83.17;100595.53;6213237;23;20304;-71
2022/03/04 05:02:59;;;;;;;0.00;0.00;;;;;;;6.43;83.56;100604.06;6184799;23;20012;-71
2022/03/04 05:05:24;;;;;;;0.00;0.00;;;;;;;6.49;82.89;100607.72;6163055;23;20450;-70
2022/03/04 05:07:50;;;;;;;0.00;0.00;;;;;;;6.51;83.31;100613.75;6213099;23;20018;-71
2022/03/04 05:10:15;;;;;;;0.00;0.00;;;;;;;6.54;83.31;100613.28;6186619;23;20008;-71
2022/03/04 05:12:41;;;;;;;0.00;0.00;;;;;;;6.55;83.50;100610.31;6162437;23;20047;-71
2022/03/04 05:15:07;;;;;;;0.00;0.00;;;;;;;6.60;83.46;100615.03;6212918;23;20091;-70
2022/03/04 05:17:33;;;;;;;0.00;0.00;;;;;;;6.63;82.70;100623.56;6212902;23;20031;-70
2022/03/04 05:19:58;;;;;;;0.00;0.00;;;;;;;6.67;82.98;100620.38;6185907;23;20379;-71
2022/03/04 05:22:24;;;;;;;0.00;0.00;;;;;;;6.64;82.80;100624.38;6213124;23;20305;-70
2022/03/04 05:24:49;;;;;;;0.00;0.00;;;;;;;6.63;82.40;100628.19;6186390;23;20016;-71
2022/03/04 05:27:15;;;;;;;0.00;0.00;;;;;;;6.57;82.43;100624.50;6212703;23;20005;-73
2022/03/04 05:29:40;;;;;;;0.00;0.00;;;;;;;6.56;82.32;100619.31;6185855;23;20008;-70
2022/03/04 05:32:06;;;;;;;0.00;0.00;;;;;;;6.57;82.06;100618.22;6185979;23;20304;-70
2022/03/04 05:34:32;;;;;;;0.00;0.00;;;;;;;6.55;82.11;100623.09;6212519;23;20003;-70
2022/03/04 05:36:57;;;;;;;0.00;0.00;;;;;;;6.54;81.83;100621.41;6211086;23;20016;-71
2022/03/04 05:39:23;;;;;;;0.00;0.00;;;;;;;6.57;81.93;100618.22;6186622;23;20008;-72
2022/03/04 05:41:48;;;;;;;0.00;0.00;;;;;;;6.60;82.21;100628.63;6212948;23;20039;-70
2022/03/04 05:44:14;;;;;;;0.00;0.00;;;;;;;6.61;81.99;100635.72;6213506;23;20008;-72
2022/03/04 05:46:39;;;;;;;0.00;0.00;;;;;;;6.59;82.09;100635.16;6185853;23;20443;-70
2022/03/04 05:49:05;;;;;;;0.00;0.00;;;;;;;6.57;82.09;100640.81;6186496;23;20009;-73
2022/03/04 05:51:33;;;;;;;0.00;0.00;;;;;;;6.58;82.55;100638.91;6182144;23;20438;-71
2022/03/04 05:53:59;;;;;;;0.00;0.00;;;;;;;6.58;82.03;100647.06;6221058;23;20004;-71
2022/03/04 05:56:24;;;;;;;0.00;0.00;;;;;;;6.57;81.79;100650.84;6195230;23;20031;-71
2022/03/04 05:58:50;;;;;;;0.00;0.00;;;;;;;6.58;81.55;100657.94;6196524;23;20012;-72
2022/03/04 06:01:16;;;;;;;0.00;0.00;;;;;;;6.54;81.33;100656.75;6214687;23;20008;-71
2022/03/04 06:03:42;;;;;;;0.00;0.00;;;;;;;6.50;81.15;100656.41;6212975;23;20075;-71
2022/03/04 06:06:11;;;;;;;0.00;0.00;;;;;;;6.46;81.83;100661.44;6214396;23;20724;-72
2022/03/04 06:08:37;;;;;;;0.00;0.00;;;;;;;6.45;81.56;100657.09;6213016;23;20032;-70
2022/03/04 06:11:02;;;;;;;0.00;0.00;;;;;;;6.45;81.86;100659.81;6188599;23;20682;-73
2022/03/04 06:13:28;;;;;;;0.00;0.00;;;;;;;6.45;80.94;100664.41;6187486;23;20059;-71
2022/03/04 06:15:53;;;;;;;0.00;0.00;;;;;;;6.46;81.63;100666.88;6187983;23;20445;-70
2022/03/04 06:18:19;;;;;;;0.00;0.00;;;;;;;6.46;80.99;100672.31;6188409;23;20008;-72
2022/03/04 06:20:45;;;;;;;0.00;0.00;;;;;;;6.41;81.06;100674.91;6215530;22;20017;-71
2022/03/04 06:23:11;;;;;;;0.00;0.00;;;;;;;6.40;80.85;100684.13;6164605;23;20008;-71
2022/03/04 06:25:37;;;;;;;0.00;0.00;;;;;;;6.39;80.58;100682.44;6214240;23;20009;-71
2022/03/04 06:28:03;;;;;;;0.00;0.00;;;;;;;6.35;81.18;100684.00;6214302;23;20008;-72
2022/03/04 06:30:32;;;;;;;0.00;0.00;;;;;;;6.32;80.02;100681.72;6213093;23;20051;-75
2022/03/04 06:35:45;;;;;;;0.00;0.00;;;;;;;6.35;79.88;100700.31;6215578;23;20019;-74
2022/03/04 06:38:11;;;;;;;0.00;0.00;;;;;;;6.34;79.55;100698.63;6213303;23;20005;-74
2022/03/04 06:40:37;;;;;;;0.00;0.00;;;;;;;6.32;80.57;100706.16;6188071;23;20309;-71
2022/03/04 06:43:06;;;;;;;0.00;0.00;;;;;;;6.31;79.60;100718.13;6214066;23;20005;-72
2022/03/04 06:45:31;;;;;;;0.00;0.00;;;;;;;6.27;80.24;100719.63;6188236;23;20015;-73
2022/03/04 06:47:57;;;;;;;0.00;0.00;;;;;;;6.29;79.83;100728.38;6213933;23;20008;-72
2022/03/04 06:50:25;;;;;;;0.00;0.00;;;;;;;6.31;80.61;100723.53;6162895;23;20008;-74
2022/03/04 06:52:54;;;;;;;0.00;0.00;;;;;;;6.29;79.78;100728.38;6189203;23;20007;-74
2022/03/04 06:55:19;;;;;;;0.00;0.00;;;;;;;6.24;79.61;100728.25;6216135;23;20005;-73
2022/03/04 06:57:51;;;;;;;0.00;0.00;;;;;;;6.22;78.93;100733.91;6186668;23;20008;-72
2022/03/04 07:00:20;;;;;;;0.00;0.00;;;;;;;6.19;79.12;100728.94;6189792;23;20351;-72
2022/03/04 07:02:46;;;;;;;0.00;0.00;;;;;;;6.22;79.13;100744.75;6164818;23;20433;-74
2022/03/04 07:05:12;;;;;;;0.00;0.00;;;;;;;6.13;80.07;100737.97;6165234;23;20103;-72
2022/03/04 07:07:57;;;;;;;0.00;0.00;;;;;;;6.14;80.18;100744.25;6190968;23;20012;-73
2022/03/04 07:10:23;;;;;;;0.00;0.00;;;;;;;6.16;79.47;100736.69;6190616;23;20008;-72
2022/03/04 07:12:50;;;;;;;0.00;0.00;;;;;;;6.26;80.16;100747.84;6189581;23;20004;-72
2022/03/04 07:15:19;;;;;;;0.00;0.00;;;;;;;6.32;79.39;100752.34;6191307;23;20087;-74
2022/03/04 07:17:46;;;;;;;0.00;0.00;;;;;;;6.37;79.25;100754.41;6192042;23;20059;-73
2022/03/04 07:20:15;;;;;;;0.00;0.00;;;;;;;6.30;79.88;100746.31;6191106;23;20039;-73
2022/03/04 07:22:42;;;;;;;0.00;0.00;;;;;;;6.34;79.95;100760.25;6190693;23;20009;-73
2022/03/04 07:25:16;;;;;;;0.00;0.00;;;;;;;6.34;79.39;100750.25;6218917;23;20008;-74
2022/03/04 07:27:42;;;;;;;0.00;0.00;;;;;;;6.44;79.31;100758.66;6167418;23;20416;-72
2022/03/04 07:30:20;;;;;;;0.00;0.00;;;;;;;6.44;79.60;100745.09;6193103;23;20019;-73
2022/03/04 07:33:31;;;;;;;0.00;0.00;;;;;;;6.53;78.89;100758.34;6191017;23;20077;-72
2022/03/04 07:35:45;;;;;;;0.00;0.00;;;;;;;6.62;79.49;100765.09;6185506;23;20040;-73
2022/03/04 07:38:29;;;;;;;0.00;0.00;;;;;;;6.69;79.71;100765.84;6191602;23;20019;-74
2022/03/04 07:44:53;;;;;;;0.00;0.00;;;;;;;6.78;79.62;100761.72;6179537;23;20011;-74
2022/03/04 08:02:07;;;;;;;0.00;0.00;;;;;;;7.12;78.57;100789.22;5948025;24;20581;-72
2022/03/04 08:04:39;;;;;;;0.00;0.00;;;;;;;7.07;78.44;100775.50;5953593;24;20013;-72
2022/03/04 08:07:07;;;;;;;0.00;0.00;;;;;;;7.19;78.06;100780.13;5931340;24;20008;-70
2022/03/04 08:09:44;;;;;;;0.00;0.00;;;;;;;7.26;78.25;100795.28;6181034;23;20008;-76
2022/03/04 08:12:25;;;;;;;;;;;;;;;;;;;;;
2022/03/04 08:15:05;;;;;;;0.00;0.00;;;;;;;7.37;77.10;100785.44;6195360;23;20079;-74
2022/03/04 08:17:35;;;;;;;0.00;0.00;;;;;;;7.42;77.46;100798.38;6216783;23;20008;-72
2022/03/04 08:20:07;;;;;;;0.00;0.00;;;;;;;7.51;77.10;100811.38;6165403;23;20008;-70
2022/03/04 08:22:32;;;;;;;0.00;0.00;;;;;;;7.50;76.67;100806.16;6216594;23;20012;-71
2022/03/04 08:25:02;;;;;;;0.00;0.00;;;;;;;7.55;76.28;100810.91;6213790;23;20444;-72
2022/03/04 08:27:31;;;;;;;0.00;0.00;;;;;;;7.51;76.42;100797.75;6188187;23;20099;-74
2022/03/04 08:29:57;;;;;;;0.00;0.00;;;;;;;7.47;76.08;100802.03;6213591;23;20000;-73
2022/03/04 08:32:31;;;;;;;0.00;0.00;;;;;;;7.43;75.90;100805.44;6216050;23;20001;-73
2022/03/04 08:35:00;;;;;;;0.00;0.00;;;;;;;7.52;75.45;100809.50;6192558;23;20032;-72
2022/03/04 08:37:35;;;;;;;0.00;0.00;;;;;;;7.58;76.01;100818.59;6220969;23;20024;-72
2022/03/04 08:40:14;;;;;;;0.00;0.00;;;;;;;7.62;75.53;100814.34;6184695;23;20027;-71
2022/03/04 08:43:25;;;;;;;;;;;;;;;;;;;;;
2022/03/04 08:46:01;;;;;;;0.00;0.00;;;;;;;7.83;75.40;100827.34;6215661;23;20065;-70
2022/03/04 08:51:55;;;;;;;0.00;0.00;;;;;;;7.95;74.45;100821.06;6125943;23;19976;-73
2022/03/04 09:15:44;;;;;;;0.00;0.00;;;;;;;9.58;70.77;100835.31;5969365;23;20709;-72
2022/03/04 09:25:26;;;;;;;0.00;0.00;;;;;;;9.63;68.77;100854.50;5843650;24;20093;-75
2022/03/04 09:31:46;;;;;;;0.00;0.00;;;;;;;9.81;69.02;100828.00;5925169;24;20043;-72
2022/03/04 09:34:20;;;;;;;0.00;0.00;;;;;;;9.89;68.68;100847.53;5926974;24;20012;-73
2022/03/04 09:37:18;;;;;;;0.00;0.00;;;;;;;9.93;68.25;100837.75;6071060;23;20422;-73
2022/03/04 09:40:32;;;;;;;0.00;0.00;;;;;;;10.05;68.04;100834.09;6072508;23;20014;-73
2022/03/04 09:43:00;;;;;;;0.00;0.00;;;;;;;10.12;68.39;100840.19;6134722;23;20035;-72
2022/03/04 09:45:30;;;;;;;0.00;0.00;;;;;;;10.22;67.45;100859.47;6187979;23;20343;-74
2022/03/04 09:52:14;;;;;;;0.00;0.00;;;;;;;10.16;66.43;100844.06;6085353;23;20019;-77
2022/03/04 11:24:57;;;;;;;0.00;0.00;;;;;;;13.83;50.74;100867.16;6085041;23;20033;-76
2022/03/04 11:31:48;;;;;;;;;;;;;;;;;;;;;
2022/03/04 12:09:55;;;;;;;;;;;;;;;16.74;47.62;100879.13;6206782;23;20008;-72
2022/03/04 12:12:33;;;;;;;0.00;0.00;;;;;;;16.53;47.15;100867.56;6182861;23;20238;-74
2022/03/04 12:15:17;;;;;;;0.00;0.00;;;;;;;16.49;47.34;100883.06;6215608;23;20004;-72
2022/03/04 12:18:25;;;;;;;0.00;0.00;;;;;;;16.29;46.86;100877.78;6188561;23;20004;-73
2022/03/04 12:20:59;;;;;;;0.00;0.00;;;;;;;16.42;48.22;100882.59;6196849;23;20015;-72
2022/03/04 12:23:33;;;;;;;0.00;0.00;;;;;;;16.74;47.86;100889.38;6192928;23;20016;-72
2022/03/04 12:26:01;;;;;;;0.00;0.00;;;;;;;17.22;47.47;100889.28;6218240;23;20008;-73
2022/03/04 12:28:42;;;;;;;0.00;0.00;;;;;;;18.04;46.86;100872.47;6218176;23;20063;-73
2022/03/04 12:31:10;;;;;;;1.33;1.08;;;;;;;18.95;45.92;100888.34;6188840;23;20004;-72
2022/03/04 12:34:00;;;;;;;0.00;0.00;;;;;;;19.16;43.83;100882.34;6185068;23;20009;-74
2022/03/04 12:37:38;;;;;;;0.00;0.00;;;;;;;18.86;42.47;100890.19;6213234;23;20011;-72
2022/03/04 12:40:10;;;;;;;0.00;0.00;;;;;;;18.36;43.04;100873.50;6155031;23;20395;-73
2022/03/04 12:42:50;;;;;;;0.00;0.00;;;;;;;18.75;44.46;100878.50;6186005;23;20339;-72
2022/03/04 12:45:18;;;;;;;0.00;0.00;;;;;;;19.98;44.24;100888.63;6216761;23;20080;-73
2022/03/04 12:47:46;;;;;;;0.00;0.00;;;;;;;20.50;43.07;100878.88;6213637;23;20076;-71
2022/03/04 12:50:27;;;;;;;0.00;0.00;;;;;;;20.90;41.31;100879.63;6216570;23;20012;-73
2022/03/04 12:53:19;;;;;;;0.00;0.00;;;;;;;20.69;40.05;100885.00;6187871;23;20004;-73
2022/03/04 12:55:59;;;;;;;0.00;0.00;;;;;;;20.97;40.39;100878.34;6215497;23;20342;-73
2022/03/04 12:58:50;;;;;;;0.00;0.00;;;;;;;21.68;40.34;100882.75;6185964;23;20015;-71
2022/03/04 13:01:27;;;;;;;;;;;;;;;;;;;;;
2022/03/04 13:04:16;;;;;;;0.00;0.00;;;;;;;21.66;39.06;100879.50;6215666;23;20495;-72
2022/03/04 13:06:45;;;;;;;0.00;0.00;;;;;;;22.46;39.48;100885.28;6187548;23;20042;-74
2022/03/04 13:09:13;;;;;;;0.00;0.00;;;;;;;23.63;38.28;100881.00;6188767;23;20095;-74
2022/03/04 13:11:50;;;;;;;0.00;0.00;;;;;;;24.12;36.42;100885.88;6216948;23;20425;-75
2022/03/04 13:14:41;;;;;;;0.00;0.00;;;;;;;25.40;35.26;100864.31;6193958;23;20031;-73
2022/03/04 13:17:47;;;;;;;0.00;0.00;;;;;;;26.53;33.17;100875.25;6191742;23;20009;-74
2022/03/04 13:20:52;;;;;;;0.00;0.00;;;;;;;26.95;31.75;100862.63;6202722;23;20031;-78
2022/03/04 13:24:25;;;;;;;0.00;0.00;;;;;;;28.15;31.00;100873.03;6170624;23;20012;-77
2022/03/04 13:31:07;;;;;;;;;;;;;;;;;;;;;
2022/03/04 13:34:24;;;;;;;;;;;;;;;;;;;;;
2022/03/04 14:49:27;;;;;;;0.00;0.00;;;;;;;33.97;16.39;100841.53;6226111;23;20023;-82
2022/03/04 14:55:57;;;;;;;;;;;;;;;;;;;;;
2022/03/04 16:11:55;;;;;;;0.00;0.00;;;;;;;20.30;25.15;100825.56;6232759;22;20142;-74
2022/03/04 16:28:48;;;;;;;0.00;0.00;;;;;;;21.87;28.30;100823.94;5964410;23;20374;-74
2022/03/04 16:31:22;;;;;;;0.00;0.00;;;;;;;22.27;28.27;100798.53;6033798;23;20329;-74
2022/03/04 16:34:04;;;;;;;;;;;;;;;;;;;;;
2022/03/04 16:41:49;;;;;;;;;;;;;;;;;;;;;
2022/03/04 16:46:41;;;;;;;0.00;0.00;;;;;;;19.49;27.54;100818.28;6154323;23;20020;-74
2022/03/04 16:52:47;;;;;;;0.00;0.00;;;;;;;18.57;28.71;100819.31;6152643;23;20076;-73
2022/03/04 17:02:45;;;;;;;;;;;;;;;;;;;;;
2022/03/04 17:16:25;;;;;;;;;;;;;;;;;;;;;
2022/03/04 17:19:51;;;;;;;;;;;;;;;;;;;;;
2022/03/04 17:22:59;;;;;;;;;;;;;;;;;;;;;
2022/03/04 17:26:40;;;;;;;0.00;0.00;;;;;;;14.51;34.18;100802.59;6175572;23;20016;-76
2022/03/04 17:35:46;;;;;;;0.00;0.00;;;;;;;13.86;35.45;100819.88;6091705;23;20453;-74
2022/03/04 17:38:16;;;;;;;0.00;0.00;;;;;;;13.76;35.47;100827.03;6102455;23;20016;-74
2022/03/04 17:40:42;;;;;;;0.00;0.00;;;;;;;13.60;36.14;100828.16;6187320;23;20039;-72
2022/03/04 17:43:24;;;;;;;0.00;0.00;;;;;;;13.56;35.71;100838.88;6164162;23;20008;-76
2022/03/04 17:45:57;;;;;;;0.00;0.00;;;;;;;13.31;36.12;100814.16;6214015;23;20131;-76
2022/03/04 17:48:37;;;;;;;;;;;;;;;;;;;;;
2022/03/04 17:51:10;;;;;;;0.00;0.00;;;;;;;13.15;36.76;100827.03;6218209;23;20070;-78
2022/03/04 17:53:43;;;;;;;0.00;0.00;;;;;;;13.05;37.46;100834.19;6188142;23;20009;-74
2022/03/04 17:56:08;;;;;;;0.00;0.00;;;;;;;12.89;37.58;100829.75;6213617;23;20690;-73
2022/03/04 17:58:34;;;;;;;0.00;0.00;;;;;;;12.79;37.76;100826.97;6211929;23;20005;-70
2022/03/04 18:01:00;;;;;;;0.00;0.00;;;;;;;12.75;37.90;100849.47;6213299;23;20431;-68
2022/03/04 18:03:28;;;;;;;0.00;0.00;;;;;;;12.66;37.62;100845.63;6211195;23;20009;-73
2022/03/04 18:05:54;;;;;;;0.00;0.00;;;;;;;12.58;38.06;100851.63;6187057;23;20063;-74
2022/03/04 18:08:22;;;;;;;0.00;0.00;;;;;;;12.45;38.18;100843.91;6185491;23;20035;-71
2022/03/04 18:10:48;;;;;;;0.00;0.00;;;;;;;12.44;38.97;100847.72;6211249;23;20443;-75
2022/03/04 18:13:14;;;;;;;0.00;0.00;;;;;;;12.34;38.80;100857.56;6186404;23;20012;-73
2022/03/04 18:15:40;;;;;;;0.00;0.00;;;;;;;12.24;38.52;100852.03;6170120;23;20020;-72
2022/03/04 18:18:05;;;;;;;0.00;0.00;;;;;;;12.17;38.84;100856.94;6211868;23;20012;-71
2022/03/04 18:20:31;;;;;;;0.00;0.00;;;;;;;12.09;39.46;100860.16;6210210;23;20019;-70
2022/03/04 18:23:01;;;;;;;0.00;0.00;;;;;;;11.92;39.83;100861.13;6211200;23;20024;-74
2022/03/04 18:25:27;;;;;;;0.00;0.00;;;;;;;11.85;39.53;100863.28;6212276;23;20016;-70
2022/03/04 18:27:52;;;;;;;0.00;0.00;;;;;;;11.83;40.26;100873.69;6209322;23;20016;-71
2022/03/04 18:30:18;;;;;;;0.00;0.00;;;;;;;11.76;40.10;100873.09;6207907;23;20039;-71
2022/03/04 18:32:44;;;;;;;0.00;0.00;;;;;;;11.69;40.90;100876.84;6208454;23;20005;-72
2022/03/04 18:35:09;;;;;;;0.00;0.00;;;;;;;11.66;41.42;100880.13;6184663;23;20387;-71
2022/03/04 18:37:35;;;;;;;0.00;0.00;;;;;;;11.61;42.34;100877.38;6210630;23;20403;-71
2022/03/04 18:40:19;;;;;;;0.00;0.00;;;;;;;11.54;42.05;100876.75;6213124;23;20402;-72